DAL2532 KPBI-KLGA
Flight info
| Callsign | DAL2532 |
|---|---|
| Flight time | 2h 22m |
| Altitude | 35000 |
| Route | SLIDZ3 LENDS DCT GRUBR Y299 SEELO DCT GARIC Q107 HURTS PROUD2 |
| Aircraft | A320/M-V/N |
Departure
| Time | 2026-05-04 12:51 |
|---|---|
| Airport | Palm Beach International Airport (KPBI) |
Arrival
| Time | 2026-05-04 15:14 |
|---|---|
| Airport | LaGuardia Airport (KLGA) |
| Time | Latitude | Longitude | Altitude | Speed | Heading |
|---|---|---|---|---|---|
| 2026-05-04 12:26 | 26.68739 | -80.08991 | 25 ft | 0 kts | 93° |
| 2026-05-04 12:40 | 26.68739 | -80.08992 | 21 ft | 1 kts | 93° |
| 2026-05-04 12:40 | 26.68739 | -80.08998 | 21 ft | 1 kts | 93° |
| 2026-05-04 12:41 | 26.68740 | -80.09005 | 23 ft | 1 kts | 93° |
| 2026-05-04 12:41 | 26.68740 | -80.09013 | 24 ft | 1 kts | 93° |
| 2026-05-04 12:41 | 26.68740 | -80.09020 | 23 ft | 1 kts | 93° |
| 2026-05-04 12:41 | 26.68741 | -80.09027 | 23 ft | 1 kts | 93° |
| 2026-05-04 12:42 | 26.68741 | -80.09034 | 25 ft | 1 kts | 93° |
| 2026-05-04 12:42 | 26.68741 | -80.09041 | 25 ft | 1 kts | 93° |
| 2026-05-04 12:42 | 26.68742 | -80.09048 | 25 ft | 1 kts | 93° |
| 2026-05-04 12:42 | 26.68742 | -80.09055 | 25 ft | 1 kts | 93° |
| 2026-05-04 12:43 | 26.68742 | -80.09062 | 25 ft | 1 kts | 93° |
| 2026-05-04 12:43 | 26.68743 | -80.09069 | 24 ft | 1 kts | 93° |
| 2026-05-04 12:43 | 26.68743 | -80.09076 | 24 ft | 1 kts | 93° |
| 2026-05-04 12:43 | 26.68743 | -80.09077 | 24 ft | 0 kts | 93° |
| 2026-05-04 12:44 | 26.68743 | -80.09076 | 24 ft | 1 kts | 93° |
| 2026-05-04 12:44 | 26.68735 | -80.09062 | 25 ft | 3 kts | 136° |
| 2026-05-04 12:45 | 26.68698 | -80.09063 | 22 ft | 8 kts | 200° |
| 2026-05-04 12:45 | 26.68636 | -80.09087 | 21 ft | 11 kts | 191° |
| 2026-05-04 12:45 | 26.68547 | -80.09094 | 21 ft | 14 kts | 182° |
| 2026-05-04 12:45 | 26.68443 | -80.09097 | 21 ft | 15 kts | 182° |
| 2026-05-04 12:46 | 26.68362 | -80.09083 | 21 ft | 11 kts | 131° |
| 2026-05-04 12:46 | 26.68351 | -80.08987 | 21 ft | 14 kts | 92° |
| 2026-05-04 12:46 | 26.68344 | -80.08886 | 21 ft | 12 kts | 105° |
| 2026-05-04 12:46 | 26.68262 | -80.08849 | 21 ft | 16 kts | 181° |
| 2026-05-04 12:47 | 26.68163 | -80.08900 | 21 ft | 10 kts | 209° |
| 2026-05-04 12:47 | 26.68124 | -80.08843 | 21 ft | 12 kts | 99° |
| 2026-05-04 12:47 | 26.68118 | -80.08756 | 24 ft | 11 kts | 103° |
| 2026-05-04 12:47 | 26.68051 | -80.08754 | 21 ft | 13 kts | 208° |
| 2026-05-04 12:48 | 26.67972 | -80.08807 | 21 ft | 8 kts | 210° |
| 2026-05-04 12:48 | 26.67938 | -80.08830 | 21 ft | 2 kts | 210° |
| 2026-05-04 12:49 | 26.67932 | -80.08833 | 21 ft | 3 kts | 211° |
| 2026-05-04 12:49 | 26.67904 | -80.08853 | 22 ft | 7 kts | 212° |
| 2026-05-04 12:50 | 26.67865 | -80.08893 | 21 ft | 9 kts | 243° |
| 2026-05-04 12:50 | 26.67879 | -80.08956 | 22 ft | 3 kts | 311° |
| 2026-05-04 12:50 | 26.67880 | -80.08958 | 22 ft | 0 kts | 314° |
| 2026-05-04 12:50 | 26.68039 | -80.09136 | 24 ft | 76 kts | 315° |
| 2026-05-04 12:51 | 26.68606 | -80.09756 | 88 ft | 141 kts | 316° |
| 2026-05-04 12:51 | 26.69273 | -80.10591 | 734 ft | 155 kts | 317° |
| 2026-05-04 12:51 | 26.70056 | -80.11517 | 1467 ft | 168 kts | 322° |
| 2026-05-04 12:51 | 26.70936 | -80.12465 | 2051 ft | 195 kts | 322° |
| 2026-05-04 12:52 | 26.72083 | -80.13588 | 2104 ft | 238 kts | 333° |
| 2026-05-04 12:52 | 26.73687 | -80.14064 | 2888 ft | 244 kts | 4° |
| 2026-05-04 12:52 | 26.75280 | -80.13473 | 3801 ft | 252 kts | 34° |
| 2026-05-04 12:52 | 26.76419 | -80.11947 | 4755 ft | 266 kts | 61° |
| 2026-05-04 12:53 | 26.76961 | -80.09927 | 5533 ft | 277 kts | 76° |
| 2026-05-04 12:53 | 26.77384 | -80.07783 | 6358 ft | 287 kts | 74° |
| 2026-05-04 12:53 | 26.77942 | -80.05637 | 7130 ft | 293 kts | 69° |
| 2026-05-04 12:53 | 26.78672 | -80.03482 | 7913 ft | 297 kts | 66° |
| 2026-05-04 12:54 | 26.79506 | -80.01353 | 8770 ft | 303 kts | 64° |
| 2026-05-04 12:54 | 26.80414 | -79.99176 | 9569 ft | 308 kts | 63° |
| 2026-05-04 12:54 | 26.81341 | -79.97001 | 10296 ft | 318 kts | 63° |
| 2026-05-04 12:54 | 26.82335 | -79.94674 | 10569 ft | 343 kts | 63° |
| 2026-05-04 12:55 | 26.83395 | -79.92179 | 10850 ft | 364 kts | 63° |
| 2026-05-04 12:55 | 26.84479 | -79.89612 | 11461 ft | 372 kts | 63° |
| 2026-05-04 12:55 | 26.85592 | -79.86957 | 12190 ft | 378 kts | 63° |
| 2026-05-04 12:55 | 26.86721 | -79.84262 | 12904 ft | 384 kts | 63° |
| 2026-05-04 12:56 | 26.87854 | -79.81558 | 13617 ft | 390 kts | 63° |
| 2026-05-04 12:56 | 26.89008 | -79.78801 | 14213 ft | 397 kts | 63° |
| 2026-05-04 12:56 | 26.90201 | -79.75957 | 14708 ft | 405 kts | 63° |
| 2026-05-04 12:56 | 26.91439 | -79.73086 | 15344 ft | 409 kts | 59° |
| 2026-05-04 12:57 | 26.92994 | -79.70440 | 15911 ft | 411 kts | 48° |
| 2026-05-04 12:57 | 26.94943 | -79.68083 | 16490 ft | 411 kts | 39° |
| 2026-05-04 12:57 | 26.97050 | -79.65892 | 17027 ft | 418 kts | 39° |
| 2026-05-04 12:57 | 26.99196 | -79.63642 | 17596 ft | 422 kts | 39° |
| 2026-05-04 12:58 | 27.01329 | -79.61396 | 18125 ft | 427 kts | 39° |
| 2026-05-04 12:58 | 27.03510 | -79.59095 | 18622 ft | 432 kts | 39° |
| 2026-05-04 12:58 | 27.05713 | -79.56767 | 19185 ft | 433 kts | 39° |
| 2026-05-04 12:58 | 27.07913 | -79.54440 | 19730 ft | 436 kts | 39° |
| 2026-05-04 12:59 | 27.10104 | -79.52125 | 20361 ft | 436 kts | 39° |
| 2026-05-04 12:59 | 27.12332 | -79.49772 | 20905 ft | 439 kts | 39° |
| 2026-05-04 12:59 | 27.14547 | -79.47431 | 21441 ft | 441 kts | 39° |
| 2026-05-04 12:59 | 27.16793 | -79.45054 | 21988 ft | 444 kts | 39° |
| 2026-05-04 13:00 | 27.19032 | -79.42682 | 22526 ft | 447 kts | 39° |
| 2026-05-04 13:00 | 27.21322 | -79.40255 | 22916 ft | 454 kts | 39° |
| 2026-05-04 13:00 | 27.23617 | -79.37820 | 23429 ft | 456 kts | 39° |
| 2026-05-04 13:00 | 27.25939 | -79.35355 | 23916 ft | 459 kts | 39° |
| 2026-05-04 13:01 | 27.28276 | -79.32873 | 24372 ft | 462 kts | 39° |
| 2026-05-04 13:01 | 27.30589 | -79.30413 | 24803 ft | 465 kts | 38° |
| 2026-05-04 13:01 | 27.32963 | -79.27888 | 25221 ft | 468 kts | 38° |
| 2026-05-04 13:01 | 27.35317 | -79.25384 | 25637 ft | 471 kts | 38° |
| 2026-05-04 13:02 | 27.37714 | -79.22831 | 26029 ft | 474 kts | 38° |
| 2026-05-04 13:02 | 27.40123 | -79.20265 | 26427 ft | 477 kts | 38° |
| 2026-05-04 13:02 | 27.42545 | -79.17683 | 26806 ft | 480 kts | 38° |
| 2026-05-04 13:02 | 27.44953 | -79.15113 | 27175 ft | 483 kts | 38° |
| 2026-05-04 13:03 | 27.47413 | -79.12487 | 27543 ft | 486 kts | 38° |
| 2026-05-04 13:03 | 27.49850 | -79.09884 | 27899 ft | 488 kts | 38° |
| 2026-05-04 13:03 | 27.52335 | -79.07226 | 28241 ft | 491 kts | 38° |
| 2026-05-04 13:03 | 27.54807 | -79.04584 | 28516 ft | 495 kts | 38° |
| 2026-05-04 13:04 | 27.57330 | -79.01886 | 28726 ft | 500 kts | 38° |
| 2026-05-04 13:04 | 27.59872 | -78.99162 | 29085 ft | 502 kts | 38° |
| 2026-05-04 13:04 | 27.62390 | -78.96462 | 29426 ft | 504 kts | 38° |
| 2026-05-04 13:04 | 27.64999 | -78.93803 | 29783 ft | 501 kts | 31° |
| 2026-05-04 13:05 | 27.67882 | -78.91721 | 30059 ft | 492 kts | 19° |
| 2026-05-04 13:05 | 27.71040 | -78.90316 | 30323 ft | 481 kts | 7° |
| 2026-05-04 13:05 | 27.74267 | -78.89629 | 30592 ft | 471 kts | 358° |
| 2026-05-04 13:05 | 27.77547 | -78.89297 | 30888 ft | 470 kts | 356° |
| 2026-05-04 13:06 | 27.80828 | -78.89008 | 31185 ft | 472 kts | 356° |
| 2026-05-04 13:06 | 27.84072 | -78.88668 | 31552 ft | 472 kts | 357° |
| 2026-05-04 13:06 | 27.87348 | -78.88266 | 31939 ft | 472 kts | 358° |
| 2026-05-04 13:06 | 27.90576 | -78.87833 | 32318 ft | 471 kts | 358° |
| 2026-05-04 13:07 | 27.93839 | -78.87378 | 32761 ft | 469 kts | 358° |
| 2026-05-04 13:07 | 27.97050 | -78.86924 | 33152 ft | 468 kts | 358° |
| 2026-05-04 13:07 | 28.00286 | -78.86466 | 33512 ft | 467 kts | 358° |
| 2026-05-04 13:07 | 28.03526 | -78.86007 | 33874 ft | 465 kts | 358° |
| 2026-05-04 13:08 | 28.06699 | -78.85559 | 34049 ft | 464 kts | 358° |
| 2026-05-04 13:08 | 28.13096 | -78.84656 | 34072 ft | 463 kts | 358° |
| 2026-05-04 13:09 | 28.19482 | -78.83756 | 34071 ft | 463 kts | 358° |
| 2026-05-04 13:09 | 28.25899 | -78.82850 | 34078 ft | 464 kts | 358° |
| 2026-05-04 13:10 | 28.32287 | -78.81944 | 34079 ft | 464 kts | 358° |
| 2026-05-04 13:10 | 28.38708 | -78.81034 | 34080 ft | 464 kts | 358° |
| 2026-05-04 13:11 | 28.45095 | -78.80127 | 34086 ft | 464 kts | 358° |
| 2026-05-04 13:11 | 28.51510 | -78.79216 | 34093 ft | 464 kts | 358° |
| 2026-05-04 13:12 | 28.57880 | -78.78310 | 34090 ft | 464 kts | 358° |
| 2026-05-04 13:12 | 28.64286 | -78.77398 | 34092 ft | 464 kts | 358° |
| 2026-05-04 13:13 | 28.70677 | -78.76486 | 34097 ft | 464 kts | 358° |
| 2026-05-04 13:13 | 28.77065 | -78.75573 | 34092 ft | 463 kts | 358° |
| 2026-05-04 13:14 | 28.83478 | -78.74658 | 34103 ft | 465 kts | 358° |
| 2026-05-04 13:14 | 28.89912 | -78.73736 | 34105 ft | 465 kts | 358° |
| 2026-05-04 13:15 | 28.96313 | -78.72817 | 34105 ft | 465 kts | 358° |
| 2026-05-04 13:15 | 29.02742 | -78.71893 | 34108 ft | 465 kts | 358° |
| 2026-05-04 13:16 | 29.09149 | -78.70973 | 34113 ft | 465 kts | 359° |
| 2026-05-04 13:16 | 29.15542 | -78.70054 | 34113 ft | 465 kts | 359° |
| 2026-05-04 13:17 | 29.21992 | -78.69124 | 34112 ft | 465 kts | 359° |
| 2026-05-04 13:17 | 29.28408 | -78.68199 | 34118 ft | 467 kts | 359° |
| 2026-05-04 13:18 | 29.34854 | -78.67269 | 34157 ft | 470 kts | 359° |
| 2026-05-04 13:18 | 29.41303 | -78.66345 | 34121 ft | 467 kts | 359° |
| 2026-05-04 13:19 | 29.47757 | -78.65442 | 34124 ft | 467 kts | 359° |
| 2026-05-04 13:19 | 29.54191 | -78.64537 | 34124 ft | 467 kts | 359° |
| 2026-05-04 13:20 | 29.60662 | -78.63625 | 34130 ft | 467 kts | 359° |
| 2026-05-04 13:20 | 29.67071 | -78.62717 | 34131 ft | 461 kts | 359° |
| 2026-05-04 13:21 | 29.73478 | -78.61812 | 34135 ft | 463 kts | 359° |
| 2026-05-04 13:21 | 29.79838 | -78.60912 | 34135 ft | 463 kts | 359° |
| 2026-05-04 13:22 | 29.86241 | -78.60004 | 34135 ft | 463 kts | 359° |
| 2026-05-04 13:22 | 29.92628 | -78.59097 | 34145 ft | 460 kts | 359° |
| 2026-05-04 13:23 | 29.98926 | -78.58198 | 34140 ft | 457 kts | 359° |
| 2026-05-04 13:23 | 30.05245 | -78.57302 | 34143 ft | 458 kts | 359° |
| 2026-05-04 13:24 | 30.11559 | -78.56402 | 34143 ft | 458 kts | 359° |
| 2026-05-04 13:24 | 30.17883 | -78.55481 | 34145 ft | 458 kts | 0° |
| 2026-05-04 13:25 | 30.27374 | -78.53958 | 34148 ft | 459 kts | 0° |
| 2026-05-04 13:25 | 30.33693 | -78.52949 | 34148 ft | 459 kts | 0° |
| 2026-05-04 13:26 | 30.40016 | -78.51944 | 34151 ft | 459 kts | 0° |
| 2026-05-04 13:26 | 30.46325 | -78.50941 | 34172 ft | 458 kts | 0° |
| 2026-05-04 13:27 | 30.51563 | -78.50105 | 34147 ft | 456 kts | 0° |
| 2026-05-04 13:27 | 30.57840 | -78.49106 | 34147 ft | 457 kts | 0° |
| 2026-05-04 13:28 | 30.64128 | -78.48103 | 34154 ft | 456 kts | 0° |
| 2026-05-04 13:28 | 30.70419 | -78.47097 | 34167 ft | 457 kts | 0° |
| 2026-05-04 13:29 | 30.76713 | -78.46090 | 34158 ft | 455 kts | 1° |
| 2026-05-04 13:29 | 30.82986 | -78.45084 | 34160 ft | 456 kts | 1° |
| 2026-05-04 13:30 | 30.89265 | -78.44077 | 34163 ft | 456 kts | 1° |
| 2026-05-04 13:30 | 30.95567 | -78.43064 | 34162 ft | 456 kts | 1° |
| 2026-05-04 13:31 | 31.01818 | -78.42059 | 34170 ft | 456 kts | 1° |
| 2026-05-04 13:31 | 31.08096 | -78.41048 | 34159 ft | 455 kts | 1° |
| 2026-05-04 13:32 | 31.14386 | -78.40034 | 34440 ft | 458 kts | 1° |
| 2026-05-04 13:32 | 31.17549 | -78.39522 | 34702 ft | 457 kts | 1° |
| 2026-05-04 13:32 | 31.20714 | -78.39010 | 34949 ft | 458 kts | 1° |
| 2026-05-04 13:33 | 31.23847 | -78.38504 | 35136 ft | 458 kts | 1° |
| 2026-05-04 13:33 | 31.27001 | -78.37993 | 35171 ft | 457 kts | 1° |
| 2026-05-04 13:33 | 31.33271 | -78.36976 | 35165 ft | 454 kts | 1° |
| 2026-05-04 13:34 | 31.39557 | -78.35959 | 35165 ft | 455 kts | 1° |
| 2026-05-04 13:34 | 31.45803 | -78.34944 | 35165 ft | 454 kts | 1° |
| 2026-05-04 13:35 | 31.55202 | -78.33415 | 35195 ft | 454 kts | 1° |
| 2026-05-04 13:36 | 31.61415 | -78.32401 | 35166 ft | 451 kts | 1° |
| 2026-05-04 13:36 | 31.67639 | -78.31387 | 35168 ft | 452 kts | 1° |
| 2026-05-04 13:37 | 31.73861 | -78.30371 | 35167 ft | 452 kts | 1° |
| 2026-05-04 13:37 | 31.80080 | -78.29353 | 35168 ft | 452 kts | 1° |
| 2026-05-04 13:38 | 31.86279 | -78.28336 | 35167 ft | 449 kts | 1° |
| 2026-05-04 13:38 | 31.92443 | -78.27324 | 35146 ft | 446 kts | 1° |
| 2026-05-04 13:39 | 31.98615 | -78.26313 | 35165 ft | 451 kts | 1° |
| 2026-05-04 13:39 | 32.04823 | -78.25307 | 35167 ft | 450 kts | 0° |
| 2026-05-04 13:40 | 32.11037 | -78.24410 | 35171 ft | 446 kts | 360° |
| 2026-05-04 13:40 | 32.17214 | -78.23526 | 35168 ft | 447 kts | 0° |
| 2026-05-04 13:41 | 32.23345 | -78.22634 | 35168 ft | 447 kts | 0° |
| 2026-05-04 13:41 | 32.29542 | -78.21727 | 35168 ft | 447 kts | 0° |
| 2026-05-04 13:42 | 32.38791 | -78.20371 | 35180 ft | 446 kts | 0° |
| 2026-05-04 13:42 | 32.44928 | -78.19469 | 35167 ft | 444 kts | 0° |
| 2026-05-04 13:43 | 32.51046 | -78.18569 | 35159 ft | 443 kts | 0° |
| 2026-05-04 13:43 | 32.57148 | -78.17671 | 35149 ft | 442 kts | 0° |
| 2026-05-04 13:44 | 32.63243 | -78.16772 | 35160 ft | 441 kts | 360° |
| 2026-05-04 13:44 | 32.69317 | -78.15875 | 35155 ft | 440 kts | 360° |
| 2026-05-04 13:45 | 32.75388 | -78.14978 | 35150 ft | 440 kts | 360° |
| 2026-05-04 13:45 | 32.81476 | -78.14077 | 35144 ft | 440 kts | 360° |
| 2026-05-04 13:46 | 32.87536 | -78.13179 | 35143 ft | 439 kts | 360° |
| 2026-05-04 13:46 | 32.93599 | -78.12279 | 35141 ft | 440 kts | 360° |
| 2026-05-04 13:47 | 32.99653 | -78.11379 | 35142 ft | 440 kts | 360° |
| 2026-05-04 13:47 | 33.05721 | -78.10476 | 35145 ft | 441 kts | 360° |
| 2026-05-04 13:48 | 33.11827 | -78.09566 | 35186 ft | 441 kts | 360° |
| 2026-05-04 13:48 | 33.17898 | -78.08660 | 35170 ft | 442 kts | 360° |
| 2026-05-04 13:49 | 33.24013 | -78.07746 | 35169 ft | 442 kts | 360° |
| 2026-05-04 13:49 | 33.30141 | -78.06828 | 35169 ft | 442 kts | 360° |
| 2026-05-04 13:50 | 33.36251 | -78.05912 | 35164 ft | 442 kts | 360° |
| 2026-05-04 13:50 | 33.42321 | -78.04999 | 35151 ft | 439 kts | 360° |
| 2026-05-04 13:51 | 33.48376 | -78.04090 | 35154 ft | 440 kts | 360° |
| 2026-05-04 13:51 | 33.54451 | -78.03176 | 35148 ft | 440 kts | 360° |
| 2026-05-04 13:52 | 33.63572 | -78.01801 | 35189 ft | 440 kts | 359° |
| 2026-05-04 13:53 | 33.69615 | -78.00886 | 35142 ft | 437 kts | 359° |
| 2026-05-04 13:53 | 33.75614 | -77.99978 | 35151 ft | 437 kts | 359° |
| 2026-05-04 13:54 | 33.84694 | -77.98606 | 35155 ft | 438 kts | 359° |
| 2026-05-04 13:55 | 33.93713 | -77.96482 | 35156 ft | 442 kts | 5° |
| 2026-05-04 13:55 | 34.02722 | -77.94018 | 35153 ft | 442 kts | 5° |
| 2026-05-04 13:56 | 34.08711 | -77.92376 | 35145 ft | 442 kts | 5° |
| 2026-05-04 13:57 | 34.17710 | -77.89897 | 35150 ft | 441 kts | 5° |
| 2026-05-04 13:58 | 34.29585 | -77.86619 | 35125 ft | 437 kts | 5° |
| 2026-05-04 13:58 | 34.38558 | -77.84139 | 35178 ft | 441 kts | 5° |
| 2026-05-04 13:59 | 34.44504 | -77.82488 | 35142 ft | 441 kts | 4° |
| 2026-05-04 14:00 | 34.53497 | -77.79991 | 35149 ft | 441 kts | 4° |
| 2026-05-04 14:00 | 34.62451 | -77.77499 | 35145 ft | 441 kts | 4° |
| 2026-05-04 14:01 | 34.68461 | -77.75823 | 35156 ft | 442 kts | 4° |
| 2026-05-04 14:02 | 34.77433 | -77.73316 | 35149 ft | 442 kts | 4° |
| 2026-05-04 14:02 | 34.83420 | -77.71640 | 35149 ft | 442 kts | 4° |
| 2026-05-04 14:03 | 34.89420 | -77.69957 | 35167 ft | 443 kts | 4° |
| 2026-05-04 14:03 | 34.95407 | -77.68277 | 35161 ft | 442 kts | 4° |
| 2026-05-04 14:04 | 35.04395 | -77.65749 | 35148 ft | 442 kts | 4° |
| 2026-05-04 14:04 | 35.10389 | -77.64060 | 35145 ft | 441 kts | 4° |
| 2026-05-04 14:05 | 35.19335 | -77.61533 | 35143 ft | 441 kts | 4° |
| 2026-05-04 14:06 | 35.25332 | -77.59837 | 35136 ft | 440 kts | 4° |
| 2026-05-04 14:06 | 35.31270 | -77.58156 | 35136 ft | 443 kts | 4° |
| 2026-05-04 14:07 | 35.37297 | -77.56446 | 35138 ft | 443 kts | 4° |
| 2026-05-04 14:07 | 35.43301 | -77.54739 | 35137 ft | 443 kts | 4° |
| 2026-05-04 14:08 | 35.49271 | -77.53041 | 35136 ft | 443 kts | 4° |
| 2026-05-04 14:08 | 35.55282 | -77.51327 | 35115 ft | 443 kts | 4° |
| 2026-05-04 14:09 | 35.64283 | -77.48759 | 35100 ft | 444 kts | 4° |
| 2026-05-04 14:10 | 35.73312 | -77.46173 | 35105 ft | 444 kts | 4° |
| 2026-05-04 14:10 | 35.79330 | -77.44447 | 35109 ft | 445 kts | 4° |
| 2026-05-04 14:11 | 35.85364 | -77.42715 | 35117 ft | 446 kts | 4° |
| 2026-05-04 14:11 | 35.94432 | -77.40108 | 35106 ft | 447 kts | 4° |
| 2026-05-04 14:12 | 36.00491 | -77.38360 | 35109 ft | 447 kts | 4° |
| 2026-05-04 14:13 | 36.09578 | -77.35738 | 35108 ft | 450 kts | 5° |
| 2026-05-04 14:13 | 36.15711 | -77.33967 | 35106 ft | 450 kts | 5° |
| 2026-05-04 14:14 | 36.21780 | -77.32206 | 35108 ft | 451 kts | 5° |
| 2026-05-04 14:14 | 36.30970 | -77.29535 | 35115 ft | 452 kts | 5° |
| 2026-05-04 14:15 | 36.43120 | -77.25995 | 35108 ft | 449 kts | 6° |
| 2026-05-04 14:16 | 36.52266 | -77.23323 | 35104 ft | 449 kts | 6° |
| 2026-05-04 14:17 | 36.61372 | -77.20656 | 35099 ft | 448 kts | 6° |
| 2026-05-04 14:18 | 36.70452 | -77.17991 | 35096 ft | 448 kts | 6° |
| 2026-05-04 14:19 | 36.82571 | -77.14422 | 35078 ft | 445 kts | 6° |
| 2026-05-04 14:19 | 36.87576 | -77.12944 | 35076 ft | 445 kts | 6° |
| 2026-05-04 14:20 | 36.94610 | -77.10868 | 35082 ft | 447 kts | 6° |
| 2026-05-04 14:20 | 36.99658 | -77.09372 | 35079 ft | 447 kts | 6° |
| 2026-05-04 14:21 | 37.08738 | -77.06676 | 35082 ft | 445 kts | 6° |
| 2026-05-04 14:21 | 37.14744 | -77.04890 | 35081 ft | 445 kts | 6° |
| 2026-05-04 14:22 | 37.20794 | -77.03089 | 35081 ft | 445 kts | 6° |
| 2026-05-04 14:22 | 37.26808 | -77.01295 | 35084 ft | 444 kts | 6° |
| 2026-05-04 14:23 | 37.35814 | -76.98604 | 35081 ft | 444 kts | 6° |
| 2026-05-04 14:24 | 37.41824 | -76.96806 | 35076 ft | 445 kts | 6° |
| 2026-05-04 14:24 | 37.47770 | -76.94322 | 35092 ft | 455 kts | 17° |
| 2026-05-04 14:25 | 37.53421 | -76.90659 | 35077 ft | 459 kts | 21° |
| 2026-05-04 14:25 | 37.61887 | -76.85051 | 35070 ft | 459 kts | 21° |
| 2026-05-04 14:26 | 37.67553 | -76.81279 | 35068 ft | 460 kts | 21° |
| 2026-05-04 14:26 | 37.73193 | -76.77512 | 35066 ft | 460 kts | 21° |
| 2026-05-04 14:27 | 37.78837 | -76.73734 | 35066 ft | 460 kts | 21° |
| 2026-05-04 14:27 | 37.84521 | -76.69925 | 35064 ft | 460 kts | 21° |
| 2026-05-04 14:28 | 37.90149 | -76.66192 | 34991 ft | 456 kts | 20° |
| 2026-05-04 14:28 | 37.92986 | -76.64401 | 34605 ft | 453 kts | 19° |
| 2026-05-04 14:28 | 37.95811 | -76.62634 | 34075 ft | 450 kts | 19° |
| 2026-05-04 14:29 | 38.01423 | -76.59107 | 32453 ft | 451 kts | 19° |
| 2026-05-04 14:29 | 38.07047 | -76.55545 | 30733 ft | 455 kts | 19° |
| 2026-05-04 14:30 | 38.09882 | -76.53741 | 29957 ft | 454 kts | 19° |
| 2026-05-04 14:30 | 38.12653 | -76.51972 | 29354 ft | 448 kts | 20° |
| 2026-05-04 14:30 | 38.18178 | -76.48443 | 28015 ft | 439 kts | 20° |
| 2026-05-04 14:31 | 38.20875 | -76.46721 | 27395 ft | 434 kts | 20° |
| 2026-05-04 14:31 | 38.26215 | -76.43309 | 27050 ft | 432 kts | 20° |
| 2026-05-04 14:32 | 38.31386 | -76.39297 | 27051 ft | 442 kts | 31° |
| 2026-05-04 14:32 | 38.33812 | -76.36908 | 27062 ft | 441 kts | 31° |
| 2026-05-04 14:32 | 38.36252 | -76.34524 | 27053 ft | 440 kts | 31° |
| 2026-05-04 14:32 | 38.38673 | -76.32165 | 27052 ft | 440 kts | 31° |
| 2026-05-04 14:33 | 38.41120 | -76.29777 | 27053 ft | 440 kts | 31° |
| 2026-05-04 14:33 | 38.43534 | -76.27418 | 27052 ft | 440 kts | 31° |
| 2026-05-04 14:33 | 38.45974 | -76.25031 | 27054 ft | 440 kts | 31° |
| 2026-05-04 14:33 | 38.48378 | -76.22675 | 27053 ft | 440 kts | 31° |
| 2026-05-04 14:34 | 38.50819 | -76.20282 | 27053 ft | 440 kts | 31° |
| 2026-05-04 14:34 | 38.53237 | -76.17908 | 27074 ft | 440 kts | 32° |
| 2026-05-04 14:34 | 38.55672 | -76.15514 | 27053 ft | 438 kts | 32° |
| 2026-05-04 14:34 | 38.58064 | -76.13162 | 27052 ft | 440 kts | 32° |
| 2026-05-04 14:35 | 38.60510 | -76.10755 | 27054 ft | 441 kts | 32° |
| 2026-05-04 14:35 | 38.62922 | -76.08380 | 27053 ft | 440 kts | 32° |
| 2026-05-04 14:35 | 38.65380 | -76.06021 | 27054 ft | 439 kts | 30° |
| 2026-05-04 14:35 | 38.67832 | -76.03744 | 27054 ft | 439 kts | 30° |
| 2026-05-04 14:36 | 38.70331 | -76.01439 | 27052 ft | 439 kts | 30° |
| 2026-05-04 14:36 | 38.72809 | -75.99144 | 27052 ft | 439 kts | 30° |
| 2026-05-04 14:36 | 38.75250 | -75.96871 | 27059 ft | 432 kts | 30° |
| 2026-05-04 14:36 | 38.77636 | -75.94672 | 26902 ft | 409 kts | 28° |
| 2026-05-04 14:37 | 38.79881 | -75.92791 | 26842 ft | 367 kts | 26° |
| 2026-05-04 14:37 | 38.81914 | -75.91122 | 26975 ft | 326 kts | 26° |
| 2026-05-04 14:37 | 38.83668 | -75.89549 | 27502 ft | 294 kts | 30° |
| 2026-05-04 14:37 | 38.85271 | -75.87874 | 27462 ft | 306 kts | 32° |
| 2026-05-04 14:38 | 38.86981 | -75.86080 | 27082 ft | 333 kts | 32° |
| 2026-05-04 14:38 | 38.88851 | -75.84196 | 27070 ft | 350 kts | 31° |
| 2026-05-04 14:38 | 38.90842 | -75.82261 | 27058 ft | 367 kts | 30° |
| 2026-05-04 14:38 | 38.92951 | -75.80253 | 27053 ft | 384 kts | 30° |
| 2026-05-04 14:39 | 38.95127 | -75.78199 | 27055 ft | 399 kts | 31° |
| 2026-05-04 14:39 | 38.97387 | -75.76062 | 27002 ft | 401 kts | 31° |
| 2026-05-04 14:39 | 38.99636 | -75.73929 | 26668 ft | 401 kts | 31° |
| 2026-05-04 14:40 | 39.04153 | -75.69654 | 25169 ft | 410 kts | 31° |
| 2026-05-04 14:40 | 39.06469 | -75.67463 | 24477 ft | 414 kts | 31° |
| 2026-05-04 14:40 | 39.08803 | -75.65253 | 24196 ft | 416 kts | 31° |
| 2026-05-04 14:40 | 39.11114 | -75.63060 | 24068 ft | 417 kts | 31° |
| 2026-05-04 14:41 | 39.13461 | -75.60830 | 24055 ft | 416 kts | 31° |
| 2026-05-04 14:41 | 39.15769 | -75.58636 | 24044 ft | 415 kts | 32° |
| 2026-05-04 14:41 | 39.20431 | -75.54200 | 24042 ft | 415 kts | 32° |
| 2026-05-04 14:42 | 39.25081 | -75.49812 | 24030 ft | 413 kts | 30° |
| 2026-05-04 14:42 | 39.27448 | -75.47713 | 23807 ft | 410 kts | 29° |
| 2026-05-04 14:42 | 39.29790 | -75.45669 | 23309 ft | 408 kts | 29° |
| 2026-05-04 14:43 | 39.32140 | -75.43614 | 22689 ft | 405 kts | 29° |
| 2026-05-04 14:43 | 39.34468 | -75.41565 | 22064 ft | 402 kts | 30° |
| 2026-05-04 14:43 | 39.36766 | -75.39532 | 21426 ft | 399 kts | 30° |
| 2026-05-04 14:43 | 39.39021 | -75.37529 | 20812 ft | 395 kts | 30° |
| 2026-05-04 14:44 | 39.41288 | -75.35514 | 20189 ft | 393 kts | 30° |
| 2026-05-04 14:44 | 39.43541 | -75.33507 | 19599 ft | 389 kts | 30° |
| 2026-05-04 14:44 | 39.45734 | -75.31551 | 19211 ft | 383 kts | 30° |
| 2026-05-04 14:44 | 39.47951 | -75.29574 | 19078 ft | 387 kts | 30° |
| 2026-05-04 14:45 | 39.50151 | -75.27613 | 19049 ft | 388 kts | 30° |
| 2026-05-04 14:45 | 39.52365 | -75.25613 | 19042 ft | 388 kts | 31° |
| 2026-05-04 14:45 | 39.54570 | -75.23553 | 18990 ft | 388 kts | 31° |
| 2026-05-04 14:45 | 39.56724 | -75.21517 | 18689 ft | 387 kts | 31° |
| 2026-05-04 14:46 | 39.58903 | -75.19457 | 18210 ft | 385 kts | 31° |
| 2026-05-04 14:46 | 39.61068 | -75.17416 | 17588 ft | 382 kts | 31° |
| 2026-05-04 14:46 | 39.63195 | -75.15415 | 16994 ft | 379 kts | 31° |
| 2026-05-04 14:46 | 39.65302 | -75.13436 | 16402 ft | 376 kts | 31° |
| 2026-05-04 14:47 | 39.67418 | -75.11447 | 15830 ft | 373 kts | 32° |
| 2026-05-04 14:47 | 39.69511 | -75.09536 | 15263 ft | 369 kts | 30° |
| 2026-05-04 14:47 | 39.71636 | -75.07715 | 14711 ft | 366 kts | 29° |
| 2026-05-04 14:47 | 39.73768 | -75.05919 | 14167 ft | 363 kts | 29° |
| 2026-05-04 14:48 | 39.75884 | -75.04129 | 13603 ft | 361 kts | 29° |
| 2026-05-04 14:48 | 39.77973 | -75.02348 | 13173 ft | 355 kts | 30° |
| 2026-05-04 14:48 | 39.80021 | -75.00590 | 13054 ft | 359 kts | 30° |
| 2026-05-04 14:48 | 39.82117 | -74.98785 | 13034 ft | 359 kts | 30° |
| 2026-05-04 14:49 | 39.84183 | -74.97001 | 13034 ft | 359 kts | 30° |
| 2026-05-04 14:49 | 39.86268 | -74.95185 | 13033 ft | 359 kts | 31° |
| 2026-05-04 14:49 | 39.88327 | -74.93326 | 13033 ft | 359 kts | 31° |
| 2026-05-04 14:49 | 39.90357 | -74.91471 | 13032 ft | 359 kts | 31° |
| 2026-05-04 14:50 | 39.92350 | -74.89463 | 13014 ft | 361 kts | 39° |
| 2026-05-04 14:50 | 39.94088 | -74.87135 | 12730 ft | 362 kts | 45° |
| 2026-05-04 14:50 | 39.95766 | -74.84708 | 12459 ft | 353 kts | 45° |
| 2026-05-04 14:50 | 39.97391 | -74.82368 | 12324 ft | 340 kts | 44° |
| 2026-05-04 14:51 | 39.98929 | -74.80158 | 12189 ft | 326 kts | 44° |
| 2026-05-04 14:51 | 40.00433 | -74.78000 | 12040 ft | 314 kts | 44° |
| 2026-05-04 14:51 | 40.01900 | -74.75899 | 11686 ft | 310 kts | 44° |
| 2026-05-04 14:51 | 40.03342 | -74.73837 | 11271 ft | 308 kts | 44° |
| 2026-05-04 14:52 | 40.04771 | -74.71790 | 10909 ft | 304 kts | 44° |
| 2026-05-04 14:52 | 40.06156 | -74.69798 | 10756 ft | 288 kts | 44° |
| 2026-05-04 14:52 | 40.07482 | -74.67887 | 10463 ft | 280 kts | 44° |
| 2026-05-04 14:52 | 40.08797 | -74.66000 | 10007 ft | 278 kts | 44° |
| 2026-05-04 14:53 | 40.10079 | -74.64158 | 9534 ft | 277 kts | 44° |
| 2026-05-04 14:53 | 40.11381 | -74.62291 | 9029 ft | 277 kts | 44° |
| 2026-05-04 14:53 | 40.12683 | -74.60421 | 8531 ft | 277 kts | 45° |
| 2026-05-04 14:53 | 40.13973 | -74.58565 | 8048 ft | 276 kts | 45° |
| 2026-05-04 14:54 | 40.15286 | -74.56678 | 7322 ft | 289 kts | 45° |
| 2026-05-04 14:54 | 40.16665 | -74.54695 | 6737 ft | 296 kts | 46° |
| 2026-05-04 14:54 | 40.18020 | -74.52739 | 6499 ft | 289 kts | 46° |
| 2026-05-04 14:54 | 40.19345 | -74.50820 | 6383 ft | 277 kts | 46° |
| 2026-05-04 14:55 | 40.20635 | -74.49009 | 6112 ft | 272 kts | 41° |
| 2026-05-04 14:55 | 40.22004 | -74.47286 | 5726 ft | 273 kts | 41° |
| 2026-05-04 14:55 | 40.23368 | -74.45572 | 5452 ft | 270 kts | 41° |
| 2026-05-04 14:55 | 40.24722 | -74.43867 | 5131 ft | 268 kts | 41° |
| 2026-05-04 14:56 | 40.26041 | -74.42201 | 5038 ft | 269 kts | 41° |
| 2026-05-04 14:56 | 40.27450 | -74.40428 | 5031 ft | 290 kts | 41° |
| 2026-05-04 14:56 | 40.28904 | -74.38594 | 5034 ft | 289 kts | 41° |
| 2026-05-04 14:56 | 40.30337 | -74.36782 | 5027 ft | 288 kts | 42° |
| 2026-05-04 14:57 | 40.31758 | -74.34981 | 5024 ft | 275 kts | 42° |
| 2026-05-04 14:57 | 40.33069 | -74.33288 | 5028 ft | 262 kts | 47° |
| 2026-05-04 14:57 | 40.34107 | -74.31292 | 5028 ft | 265 kts | 57° |
| 2026-05-04 14:57 | 40.35078 | -74.29222 | 5031 ft | 275 kts | 58° |
| 2026-05-04 14:58 | 40.36086 | -74.27073 | 5027 ft | 275 kts | 57° |
| 2026-05-04 14:58 | 40.37085 | -74.24933 | 5026 ft | 275 kts | 58° |
| 2026-05-04 14:58 | 40.38083 | -74.22813 | 5000 ft | 272 kts | 57° |
| 2026-05-04 14:58 | 40.38740 | -74.21408 | 4837 ft | 272 kts | 58° |
| 2026-05-04 14:59 | 40.40051 | -74.18597 | 4444 ft | 271 kts | 58° |
| 2026-05-04 14:59 | 40.41033 | -74.16504 | 4087 ft | 271 kts | 57° |
| 2026-05-04 14:59 | 40.43219 | -74.12542 | 3502 ft | 266 kts | 47° |
| 2026-05-04 15:00 | 40.44424 | -74.10732 | 3376 ft | 257 kts | 47° |
| 2026-05-04 15:00 | 40.45580 | -74.08996 | 3275 ft | 248 kts | 47° |
| 2026-05-04 15:00 | 40.46697 | -74.07316 | 3066 ft | 245 kts | 47° |
| 2026-05-04 15:01 | 40.48957 | -74.03943 | 3020 ft | 245 kts | 47° |
| 2026-05-04 15:01 | 40.50083 | -74.02262 | 3025 ft | 246 kts | 47° |
| 2026-05-04 15:01 | 40.51231 | -74.00552 | 3024 ft | 256 kts | 47° |
| 2026-05-04 15:01 | 40.52416 | -73.98790 | 3020 ft | 260 kts | 47° |
| 2026-05-04 15:02 | 40.53617 | -73.97026 | 3025 ft | 257 kts | 47° |
| 2026-05-04 15:02 | 40.54805 | -73.95280 | 3015 ft | 261 kts | 47° |
| 2026-05-04 15:02 | 40.56013 | -73.93506 | 3029 ft | 259 kts | 47° |
| 2026-05-04 15:02 | 40.57218 | -73.91743 | 3031 ft | 261 kts | 47° |
| 2026-05-04 15:03 | 40.58422 | -73.89988 | 3029 ft | 260 kts | 47° |
| 2026-05-04 15:03 | 40.59628 | -73.88217 | 3021 ft | 260 kts | 47° |
| 2026-05-04 15:03 | 40.60823 | -73.86460 | 3009 ft | 253 kts | 47° |
| 2026-05-04 15:03 | 40.61965 | -73.84780 | 3015 ft | 249 kts | 47° |
| 2026-05-04 15:04 | 40.63127 | -73.83057 | 3020 ft | 250 kts | 47° |
| 2026-05-04 15:04 | 40.64270 | -73.81344 | 3029 ft | 247 kts | 47° |
| 2026-05-04 15:04 | 40.65403 | -73.79658 | 3020 ft | 249 kts | 47° |
| 2026-05-04 15:04 | 40.66545 | -73.77947 | 3016 ft | 247 kts | 47° |
| 2026-05-04 15:05 | 40.67685 | -73.76237 | 3026 ft | 248 kts | 47° |
| 2026-05-04 15:05 | 40.68833 | -73.74528 | 3011 ft | 247 kts | 46° |
| 2026-05-04 15:05 | 40.70023 | -73.72918 | 3021 ft | 248 kts | 43° |
| 2026-05-04 15:05 | 40.71260 | -73.71336 | 3026 ft | 245 kts | 42° |
| 2026-05-04 15:06 | 40.72455 | -73.69810 | 3017 ft | 231 kts | 42° |
| 2026-05-04 15:06 | 40.73575 | -73.68376 | 3032 ft | 229 kts | 42° |
| 2026-05-04 15:06 | 40.74731 | -73.66902 | 3022 ft | 228 kts | 42° |
| 2026-05-04 15:07 | 40.76946 | -73.64259 | 3015 ft | 196 kts | 16° |
| 2026-05-04 15:07 | 40.78197 | -73.63988 | 3033 ft | 170 kts | 342° |
| 2026-05-04 15:07 | 40.79312 | -73.64526 | 3034 ft | 175 kts | 315° |
| 2026-05-04 15:07 | 40.80091 | -73.65635 | 2970 ft | 157 kts | 291° |
| 2026-05-04 15:08 | 40.80434 | -73.66455 | 2872 ft | 154 kts | 290° |
| 2026-05-04 15:08 | 40.80957 | -73.67679 | 2646 ft | 152 kts | 291° |
| 2026-05-04 15:08 | 40.81629 | -73.69204 | 2541 ft | 137 kts | 291° |
| 2026-05-04 15:08 | 40.81944 | -73.69909 | 2392 ft | 134 kts | 290° |
| 2026-05-04 15:09 | 40.82421 | -73.71011 | 2022 ft | 138 kts | 290° |
| 2026-05-04 15:09 | 40.82904 | -73.72129 | 1910 ft | 142 kts | 291° |
| 2026-05-04 15:09 | 40.83396 | -73.73258 | 1899 ft | 142 kts | 291° |
| 2026-05-04 15:10 | 40.84386 | -73.75511 | 1898 ft | 143 kts | 291° |
| 2026-05-04 15:10 | 40.84886 | -73.76647 | 1897 ft | 143 kts | 291° |
| 2026-05-04 15:10 | 40.85823 | -73.78934 | 1857 ft | 138 kts | 278° |
| 2026-05-04 15:11 | 40.85814 | -73.80138 | 1732 ft | 128 kts | 250° |
| 2026-05-04 15:11 | 40.85393 | -73.81117 | 1598 ft | 125 kts | 230° |
| 2026-05-04 15:11 | 40.84743 | -73.81899 | 1447 ft | 127 kts | 218° |
| 2026-05-04 15:11 | 40.84005 | -73.82569 | 1533 ft | 129 kts | 215° |
| 2026-05-04 15:12 | 40.83197 | -73.83202 | 1633 ft | 146 kts | 213° |
| 2026-05-04 15:12 | 40.82355 | -73.83922 | 1452 ft | 141 kts | 212° |
| 2026-05-04 15:12 | 40.81556 | -73.84580 | 1147 ft | 131 kts | 212° |
| 2026-05-04 15:12 | 40.80788 | -73.85188 | 820 ft | 130 kts | 213° |
| 2026-05-04 15:13 | 40.80015 | -73.85827 | 476 ft | 128 kts | 211° |
| 2026-05-04 15:13 | 40.79306 | -73.86427 | 254 ft | 115 kts | 212° |
| 2026-05-04 15:13 | 40.78670 | -73.86962 | 97 ft | 105 kts | 212° |
| 2026-05-04 15:13 | 40.78102 | -73.87435 | 12 ft | 80 kts | 212° |
| 2026-05-04 15:14 | 40.77801 | -73.87689 | 22 ft | 25 kts | 215° |
| 2026-05-04 15:14 | 40.77660 | -73.87807 | 24 ft | 23 kts | 214° |
| 2026-05-04 15:14 | 40.77525 | -73.87923 | 27 ft | 23 kts | 210° |
| 2026-05-04 15:14 | 40.77379 | -73.87993 | 21 ft | 23 kts | 184° |
| 2026-05-04 15:15 | 40.77299 | -73.87982 | 20 ft | 8 kts | 135° |
| 2026-05-04 15:15 | 40.77332 | -73.87922 | 20 ft | 11 kts | 35° |
| 2026-05-04 15:15 | 40.77408 | -73.87859 | 20 ft | 15 kts | 34° |
| 2026-05-04 15:16 | 40.77627 | -73.87678 | 21 ft | 22 kts | 31° |
| 2026-05-04 15:16 | 40.77765 | -73.87557 | 18 ft | 27 kts | 41° |
| 2026-05-04 15:16 | 40.77780 | -73.87145 | 13 ft | 19 kts | 122° |
| 2026-05-04 15:17 | 40.77706 | -73.86994 | 12 ft | 20 kts | 122° |
| 2026-05-04 15:17 | 40.77536 | -73.86633 | 12 ft | 26 kts | 122° |
| 2026-05-04 15:17 | 40.77437 | -73.86426 | 12 ft | 27 kts | 122° |
| 2026-05-04 15:18 | 40.77341 | -73.86226 | 12 ft | 21 kts | 122° |
| 2026-05-04 15:18 | 40.77277 | -73.86094 | 12 ft | 15 kts | 124° |
| 2026-05-04 15:18 | 40.77213 | -73.85967 | 13 ft | 16 kts | 122° |
| 2026-05-04 15:19 | 40.77117 | -73.85860 | 11 ft | 0 kts | 202° |
| 2026-05-04 15:19 | 40.77104 | -73.85870 | 11 ft | 4 kts | 214° |
| 2026-05-04 15:19 | 40.77054 | -73.85903 | 16 ft | 3 kts | 198° |
| 2026-05-04 15:20 | 40.77022 | -73.85913 | 19 ft | 8 kts | 192° |
| 2026-05-04 15:20 | 40.76951 | -73.85945 | 19 ft | 13 kts | 214° |
| 2026-05-04 15:20 | 40.76917 | -73.85981 | 20 ft | 5 kts | 223° |
| 2026-05-04 15:20 | 40.76917 | -73.86026 | 19 ft | 5 kts | 296° |
| 2026-05-04 15:21 | 40.76927 | -73.86047 | 19 ft | 3 kts | 308° |
| 2026-05-04 15:21 | 40.76929 | -73.86049 | 19 ft | 0 kts | 308° |